Terminal Aerodrome Forecast
Issued by NWS Charleston, WV

Current Version | Previous Version | Graphics & Text | Print | Product List | Glossary On
Versions: 1 2 3 4 5 6 7 8 9 10 11 12 13 14 15 16 17 18 19 20 21
000
FTUS41 KRLX 151500 AAA
TAFPKB
TAF AMD
KPKB 151529Z 1515/1612 00000KT P6SM SCT025
      TEMPO 1515/1518 BKN025
     FM151800 VRB03KT P6SM SCT250
     FM160700 15005KT 6SM -SHRA OVC050
     FM160800 17006KT 3SM -SHRA BR OVC030=

USA.gov is the U.S. government's official web portal to all federal, state and local government web resources and services.